Time;durP1;ratioP1;P1;durP2;ratioP2;P2;SDS_P1;SDS_P2;PMS_P1;PMS_P2;Temp;Humidity;BMP_temperature;BMP_pressure;BME280_temperature;BME280_humidity;BME280_pressure;Samples;Min_cycle;Max_cycle;Signal;HPM_P1;HPM_P2
2023/02/04 00:00:21;;;;;;;1.55;0.47;;;;;;;3.40;100.00;101064.97;5004631;28;20038;-78
2023/02/04 00:02:46;;;;;;;1.85;0.52;;;;;;;3.31;100.00;101067.31;5006011;28;20139;-78
2023/02/04 00:05:12;;;;;;;0.75;0.28;;;;;;;3.27;100.00;101087.22;5009440;28;20520;-78
2023/02/04 00:07:38;;;;;;;1.27;0.30;;;;;;;3.21;100.00;101089.59;5010610;28;20037;-78
2023/02/04 00:10:05;;;;;;;2.00;0.43;;;;;;;3.09;100.00;101136.13;5006964;28;20096;-78
2023/02/04 00:12:30;;;;;;;0.93;0.22;;;;;;;3.00;100.00;101105.44;5006620;28;20048;-78
2023/02/04 00:14:55;;;;;;;2.33;0.70;;;;;;;2.92;100.00;101119.94;5008765;28;20034;-78
2023/02/04 00:17:21;;;;;;;0.90;0.30;;;;;;;2.89;100.00;101132.88;5011102;28;20427;-78
2023/02/04 00:19:46;;;;;;;1.75;0.38;;;;;;;2.78;100.00;101127.28;5003430;28;20508;-78
2023/02/04 00:22:11;;;;;;;1.58;0.40;;;;;;;2.75;100.00;101132.41;5004926;28;20428;-78
2023/02/04 00:24:37;;;;;;;1.40;0.30;;;;;;;2.76;100.00;101141.09;5003360;28;20117;-79
2023/02/04 00:27:04;;;;;;;0.93;0.40;;;;;;;2.87;100.00;101149.28;5012586;28;20042;-77
2023/02/04 00:29:29;;;;;;;1.33;0.35;;;;;;;2.90;100.00;101155.47;5008480;28;20504;-78
2023/02/04 00:31:55;;;;;;;0.85;0.30;;;;;;;2.90;100.00;101175.47;5000906;28;20096;-78
2023/02/04 00:34:21;;;;;;;1.38;0.50;;;;;;;2.97;100.00;101187.88;4992734;28;20109;-78
2023/02/04 00:36:46;;;;;;;0.38;0.22;;;;;;;3.03;100.00;101183.75;5003258;28;20042;-78
2023/02/04 00:39:11;;;;;;;0.85;0.50;;;;;;;3.01;100.00;101188.06;5003732;28;20041;-79
2023/02/04 00:41:37;;;;;;;0.77;0.30;;;;;;;3.02;100.00;101207.19;5000681;28;20034;-79
2023/02/04 00:44:02;;;;;;;1.60;0.40;;;;;;;3.04;100.00;101197.72;5009992;28;20419;-78
2023/02/04 00:46:29;;;;;;;0.45;0.30;;;;;;;3.06;100.00;101212.53;5004636;28;20034;-79
2023/02/04 00:48:56;;;;;;;3.97;0.57;;;;;;;3.07;100.00;101216.94;5005842;28;20034;-78
2023/02/04 00:51:21;;;;;;;2.70;0.55;;;;;;;3.12;100.00;101231.84;5004648;28;20781;-78
2023/02/04 00:53:46;;;;;;;4.30;0.52;;;;;;;3.15;100.00;101245.03;5000231;28;20038;-78
2023/02/04 00:56:12;;;;;;;2.10;0.55;;;;;;;3.15;100.00;101256.34;5002698;28;20044;-78
2023/02/04 00:58:37;;;;;;;1.55;0.50;;;;;;;3.14;100.00;101254.53;5004561;28;20034;-78
2023/02/04 01:01:02;;;;;;;1.10;0.50;;;;;;;3.21;100.00;101273.94;5001279;28;20038;-78
2023/02/04 01:03:28;;;;;;;1.38;0.50;;;;;;;3.22;100.00;101274.00;5000780;28;20049;-78
2023/02/04 01:05:54;;;;;;;0.47;0.30;;;;;;;3.18;100.00;101272.09;5002772;28;20029;-78
2023/02/04 01:08:19;;;;;;;1.30;0.63;;;;;;;3.17;100.00;101291.19;5003693;28;20116;-78
2023/02/04 01:10:45;;;;;;;2.75;0.68;;;;;;;3.19;100.00;101306.88;5000322;28;20129;-79
2023/02/04 01:13:10;;;;;;;1.05;0.40;;;;;;;3.18;100.00;101307.72;5002130;28;20034;-78
2023/02/04 01:15:36;;;;;;;1.67;0.50;;;;;;;3.18;100.00;101318.16;5004791;28;20045;-78
2023/02/04 01:18:01;;;;;;;3.67;0.80;;;;;;;3.02;100.00;101319.31;5003249;28;20120;-79
2023/02/04 01:20:27;;;;;;;2.03;0.70;;;;;;;3.01;100.00;101335.78;5003060;28;20057;-78
2023/02/04 01:22:52;;;;;;;1.42;0.55;;;;;;;3.02;100.00;101319.31;5001924;28;20026;-78
2023/02/04 01:25:18;;;;;;;3.15;0.60;;;;;;;3.07;100.00;101336.91;5002731;28;20524;-78
2023/02/04 01:27:43;;;;;;;2.70;0.80;;;;;;;3.15;100.00;101292.84;5001705;28;20420;-78
2023/02/04 01:30:10;;;;;;;1.08;0.65;;;;;;;3.30;100.00;101360.34;5008655;28;20093;-78
2023/02/04 01:32:35;;;;;;;1.60;0.73;;;;;;;3.32;100.00;101366.50;4984528;28;20034;-78
2023/02/04 01:35:01;;;;;;;1.60;0.70;;;;;;;3.30;100.00;101378.59;5004034;28;20045;-79
2023/02/04 01:37:26;;;;;;;1.45;0.70;;;;;;;3.29;100.00;101380.31;5006202;28;20041;-78
2023/02/04 01:39:52;;;;;;;1.15;0.50;;;;;;;3.32;100.00;101396.94;5004250;28;20037;-78
2023/02/04 01:42:17;;;;;;;2.15;0.88;;;;;;;3.24;100.00;101378.38;5001458;28;20045;-78
2023/02/04 01:44:46;;;;;;;1.30;0.50;;;;;;;3.22;100.00;101419.16;5002234;28;20028;-79
2023/02/04 01:47:12;;;;;;;2.35;0.75;;;;;;;3.03;100.00;101414.97;5010337;28;20036;-79
2023/02/04 01:49:38;;;;;;;1.45;0.85;;;;;;;2.78;100.00;101418.38;5003885;28;20033;-78
2023/02/04 01:52:03;;;;;;;2.45;1.08;;;;;;;2.72;100.00;101433.75;5000810;28;20046;-79
2023/02/04 01:54:30;;;;;;;2.30;0.80;;;;;;;2.67;100.00;101437.88;5001942;28;20160;-78
2023/02/04 01:56:55;;;;;;;1.30;0.70;;;;;;;2.50;100.00;101443.31;5001594;28;20121;-78
2023/02/04 01:59:22;;;;;;;2.63;1.00;;;;;;;2.38;100.00;101440.19;5002169;28;20165;-79
2023/02/04 02:01:50;;;;;;;1.38;0.60;;;;;;;2.35;100.00;101467.00;5002281;28;20121;-78
2023/02/04 02:04:27;;;;;;;1.52;0.60;;;;;;;2.30;100.00;101473.72;5004279;28;20038;-78
2023/02/04 02:06:56;;;;;;;1.02;0.60;;;;;;;2.23;100.00;101476.00;4991687;28;20041;-78
2023/02/04 02:09:22;;;;;;;1.40;0.65;;;;;;;2.28;100.00;101493.63;5010933;23;20081;-79
2023/02/04 02:11:48;;;;;;;1.42;0.70;;;;;;;2.27;100.00;101493.53;5003633;28;20152;-78
2023/02/04 02:14:13;;;;;;;2.08;0.70;;;;;;;2.29;100.00;101497.13;5009248;28;20149;-78
2023/02/04 02:16:39;;;;;;;1.88;0.88;;;;;;;2.36;100.00;101510.47;5004688;28;20038;-78
2023/02/04 02:19:06;;;;;;;1.45;0.68;;;;;;;2.44;100.00;101513.41;5002779;28;20034;-78
2023/02/04 02:22:20;;;;;;;1.65;0.70;;;;;;;2.48;100.00;101520.50;5003273;28;20030;-78
2023/02/04 02:24:45;;;;;;;;;;;;;;;2.52;100.00;101551.09;4926125;29;20074;-78
2023/02/04 02:27:11;;;;;;;1.10;0.68;;;;;;;2.47;100.00;101551.72;4984423;28;19924;-78
2023/02/04 02:29:38;;;;;;;1.25;0.50;;;;;;;2.37;100.00;101563.47;4983404;28;20452;-78
2023/02/04 02:32:04;;;;;;;2.08;0.75;;;;;;;2.27;100.00;101582.13;5002273;28;20037;-78
2023/02/04 02:34:30;;;;;;;3.40;0.70;;;;;;;2.22;100.00;101581.91;5002204;28;20042;-78
2023/02/04 02:36:57;;;;;;;1.17;0.50;;;;;;;2.15;100.00;101592.88;5007228;28;20065;-78
2023/02/04 02:39:23;;;;;;;1.30;0.38;;;;;;;2.06;100.00;101613.28;5000524;28;20030;-78
2023/02/04 02:41:48;;;;;;;1.05;0.50;;;;;;;1.91;100.00;101609.19;4989267;28;20049;-78
2023/02/04 02:44:15;;;;;;;1.92;0.60;;;;;;;1.74;100.00;101631.81;5004112;28;20038;-78
2023/02/04 02:46:41;;;;;;;2.40;0.60;;;;;;;1.72;100.00;101628.22;4991906;28;20416;-78
2023/02/04 02:49:14;;;;;;;2.65;0.90;;;;;;;1.65;100.00;101615.78;4989733;28;20034;-78
2023/02/04 02:51:40;;;;;;;2.47;0.80;;;;;;;1.56;100.00;101636.13;5000746;28;20034;-78
2023/02/04 02:54:18;;;;;;;1.63;0.90;;;;;;;1.55;100.00;101644.78;4986994;28;20031;-78
2023/02/04 02:56:44;;;;;;;2.63;0.85;;;;;;;1.58;100.00;101649.22;4986133;28;20026;-78
2023/02/04 02:59:14;;;;;;;4.20;0.95;;;;;;;1.54;100.00;101654.25;5006584;28;20065;-78
2023/02/04 03:01:40;;;;;;;1.52;0.70;;;;;;;1.44;100.00;101661.53;4989555;28;20076;-78
2023/02/04 03:04:08;;;;;;;2.80;1.15;;;;;;;1.44;100.00;101671.94;5002884;28;20521;-79
2023/02/04 03:06:33;;;;;;;1.63;0.70;;;;;;;1.37;100.00;101693.31;4991399;28;20057;-78
2023/02/04 03:08:59;;;;;;;4.65;1.35;;;;;;;1.31;100.00;101697.38;4994142;28;20029;-78
2023/02/04 03:11:28;;;;;;;3.53;1.30;;;;;;;1.34;100.00;101704.44;4986214;28;20121;-78
2023/02/04 03:13:54;;;;;;;2.40;1.10;;;;;;;1.31;100.00;101706.91;5008503;28;20069;-78
2023/02/04 03:16:19;;;;;;;2.35;0.95;;;;;;;1.27;100.00;101718.84;5007535;28;20058;-77
2023/02/04 03:18:46;;;;;;;2.10;1.00;;;;;;;1.22;100.00;101720.31;5008521;28;20534;-78
2023/02/04 03:21:11;;;;;;;3.88;0.90;;;;;;;1.24;100.00;101728.22;4987167;28;20041;-79
2023/02/04 03:23:37;;;;;;;2.10;0.83;;;;;;;1.22;100.00;101737.63;5004823;28;20034;-79
2023/02/04 03:26:04;;;;;;;2.00;0.97;;;;;;;1.12;100.00;101750.97;4988309;28;20037;-79
2023/02/04 03:28:31;;;;;;;1.70;0.80;;;;;;;1.11;100.00;101750.09;4986969;28;20034;-78
2023/02/04 03:30:57;;;;;;;1.97;0.53;;;;;;;1.08;100.00;101757.72;4986221;28;20377;-78
2023/02/04 03:33:30;;;;;;;1.43;0.57;;;;;;;1.14;100.00;101764.94;4987733;28;20046;-79
2023/02/04 03:35:56;;;;;;;2.30;0.70;;;;;;;1.08;100.00;101781.13;5002074;28;20484;-78
2023/02/04 03:38:21;;;;;;;1.33;0.40;;;;;;;1.04;100.00;101780.06;5006179;28;20501;-78
2023/02/04 03:40:46;;;;;;;2.20;0.60;;;;;;;1.01;100.00;101794.63;5002317;28;20042;-78
2023/02/04 03:43:12;;;;;;;2.90;0.73;;;;;;;0.96;100.00;101801.28;5006127;28;20087;-78
2023/02/04 03:45:37;;;;;;;2.40;1.00;;;;;;;0.96;100.00;101811.66;5005355;28;20038;-78
2023/02/04 03:48:03;;;;;;;2.27;0.77;;;;;;;0.94;100.00;101813.28;4987456;28;20046;-78
2023/02/04 03:50:28;;;;;;;2.43;0.70;;;;;;;1.00;100.00;101814.53;5005692;28;20038;-79
2023/02/04 03:52:53;;;;;;;4.67;0.60;;;;;;;0.96;100.00;101827.28;5001823;28;20443;-78
2023/02/04 03:55:19;;;;;;;2.73;0.73;;;;;;;0.91;100.00;101840.00;5005454;28;20488;-78
2023/02/04 03:57:44;;;;;;;2.63;0.77;;;;;;;0.81;100.00;101849.03;5005216;28;20547;-78
2023/02/04 04:00:11;;;;;;;3.30;0.97;;;;;;;0.79;100.00;101862.75;5005626;28;20084;-77
2023/02/04 04:02:40;;;;;;;2.20;0.73;;;;;;;0.74;100.00;101865.09;4971153;28;20121;-78
2023/02/04 04:05:07;;;;;;;1.63;0.60;;;;;;;0.77;100.00;101883.44;5004841;28;20041;-78
2023/02/04 04:07:32;;;;;;;3.53;0.83;;;;;;;0.72;100.00;101887.50;5005195;28;20079;-78
2023/02/04 04:09:58;;;;;;;2.03;0.80;;;;;;;0.79;100.00;101897.44;5003714;28;20128;-78
2023/02/04 04:12:23;;;;;;;2.57;0.50;;;;;;;0.81;100.00;101906.22;5000874;28;20164;-77
2023/02/04 04:14:48;;;;;;;2.57;0.77;;;;;;;0.86;100.00;101916.84;5007070;28;20026;-78
2023/02/04 04:17:13;;;;;;;1.60;0.67;;;;;;;0.87;100.00;101919.53;5006885;28;20104;-78
2023/02/04 04:19:39;;;;;;;1.37;0.60;;;;;;;0.85;100.00;101926.34;5003351;28;20029;-77
2023/02/04 04:22:04;;;;;;;4.23;1.00;;;;;;;0.82;100.00;101933.97;5003733;28;20042;-77
2023/02/04 04:24:29;;;;;;;2.17;0.73;;;;;;;0.79;100.00;101932.94;5006883;28;20042;-77
2023/02/04 04:26:55;;;;;;;1.60;0.50;;;;;;;0.77;100.00;101943.22;4985921;28;20038;-78
2023/02/04 04:29:20;;;;;;;1.00;0.40;;;;;;;0.76;100.00;101951.84;5005172;28;20080;-77
2023/02/04 04:31:45;;;;;;;3.13;0.60;;;;;;;0.71;100.00;101966.28;5004299;28;20048;-77
2023/02/04 04:34:11;;;;;;;3.40;0.60;;;;;;;0.69;100.00;101964.41;5001420;28;20129;-76
2023/02/04 04:36:36;;;;;;;4.33;0.70;;;;;;;0.65;100.00;101971.09;4991641;28;20060;-77
2023/02/04 04:39:02;;;;;;;1.63;0.70;;;;;;;0.56;100.00;101976.69;5010030;28;20037;-77
2023/02/04 04:41:27;;;;;;;2.00;0.50;;;;;;;0.59;100.00;101981.16;5004944;28;20096;-78
2023/02/04 04:43:52;;;;;;;3.17;0.80;;;;;;;0.56;100.00;101984.47;5006221;28;20046;-76
2023/02/04 04:46:18;;;;;;;2.00;0.60;;;;;;;0.52;100.00;101999.78;5007835;28;20026;-77
2023/02/04 04:48:43;;;;;;;2.47;0.30;;;;;;;0.48;100.00;102006.53;5010800;28;20486;-77
2023/02/04 04:51:09;;;;;;;4.97;1.30;;;;;;;0.44;100.00;102008.03;5007043;28;20046;-77
2023/02/04 04:53:35;;;;;;;1.43;0.60;;;;;;;0.44;100.00;102018.41;5004728;28;20512;-77
2023/02/04 04:56:00;;;;;;;2.83;0.73;;;;;;;0.50;100.00;102022.19;5007415;28;20026;-77
2023/02/04 04:58:26;;;;;;;1.40;0.60;;;;;;;0.44;100.00;102033.13;5011976;28;20527;-77
2023/02/04 05:00:51;;;;;;;4.37;0.70;;;;;;;0.40;100.00;102050.22;4994134;28;20069;-77
2023/02/04 05:03:16;;;;;;;1.60;0.47;;;;;;;0.38;100.00;102050.94;5009858;28;20073;-77
2023/02/04 05:05:43;;;;;;;3.27;0.70;;;;;;;0.34;100.00;102060.25;5011009;28;20037;-76
2023/02/04 05:08:11;;;;;;;5.00;0.65;;;;;;;0.30;100.00;102065.19;5011689;28;20144;-77
2023/02/04 05:10:38;;;;;;;3.07;0.50;;;;;;;0.28;100.00;102067.66;5011646;28;20439;-77
2023/02/04 05:13:03;;;;;;;2.03;0.40;;;;;;;0.28;100.00;102062.47;5001304;28;20466;-77
2023/02/04 05:15:29;;;;;;;4.07;0.70;;;;;;;0.21;100.00;102068.13;5003571;28;20065;-77
2023/02/04 05:17:54;;;;;;;2.63;0.50;;;;;;;0.15;100.00;102071.22;4989987;28;20400;-78
2023/02/04 05:20:19;;;;;;;2.00;0.80;;;;;;;0.15;100.00;102073.81;4985082;28;20524;-76
2023/02/04 05:22:45;;;;;;;1.27;0.50;;;;;;;0.15;100.00;102075.53;5007533;28;20037;-77
2023/02/04 05:25:10;;;;;;;3.70;0.53;;;;;;;0.13;100.00;102092.69;5003130;28;20117;-77
2023/02/04 05:27:35;;;;;;;4.17;0.60;;;;;;;0.12;100.00;102102.19;5005248;28;20070;-76
2023/02/04 05:30:01;;;;;;;3.50;0.60;;;;;;;0.12;100.00;102104.78;5003561;28;20061;-75
2023/02/04 05:32:26;;;;;;;3.37;0.73;;;;;;;0.12;100.00;102114.28;5001141;28;20121;-77
2023/02/04 05:34:51;;;;;;;3.03;0.70;;;;;;;0.08;100.00;102120.06;5004064;28;20077;-77
2023/02/04 05:37:19;;;;;;;4.37;0.67;;;;;;;0.01;100.00;102134.41;5004243;28;20416;-77
2023/02/04 05:39:46;;;;;;;2.83;0.57;;;;;;;-0.04;100.00;102131.50;5002331;28;20113;-78
2023/02/04 05:42:11;;;;;;;2.07;0.97;;;;;;;-0.05;100.00;102139.22;4986993;28;20126;-78
2023/02/04 05:44:36;;;;;;;3.50;0.97;;;;;;;-0.13;100.00;102146.53;5002799;28;20437;-79
2023/02/04 05:47:02;;;;;;;3.73;0.80;;;;;;;-0.16;100.00;102153.19;5007619;28;20109;-78
2023/02/04 05:49:27;;;;;;;2.57;0.60;;;;;;;-0.22;100.00;102153.72;5007825;28;20390;-78
2023/02/04 05:51:52;;;;;;;5.07;0.60;;;;;;;-0.27;100.00;102165.50;5005688;28;20720;-78
2023/02/04 05:54:19;;;;;;;3.23;0.60;;;;;;;-0.31;100.00;102169.59;5002208;28;20121;-78
2023/02/04 05:56:46;;;;;;;2.13;0.70;;;;;;;-0.34;100.00;102172.00;4974458;28;20641;-78
2023/02/04 05:59:11;;;;;;;2.23;0.90;;;;;;;-0.41;100.00;102171.50;5007827;28;20518;-78
2023/02/04 06:01:36;;;;;;;3.63;0.67;;;;;;;-0.41;100.00;102174.09;5005327;28;20037;-78
2023/02/04 06:04:02;;;;;;;2.77;0.63;;;;;;;-0.46;100.00;102191.94;4999868;28;20038;-78
2023/02/04 06:06:27;;;;;;;1.57;0.50;;;;;;;-0.46;100.00;102192.84;5003174;28;20052;-78
2023/02/04 06:08:52;;;;;;;2.53;0.63;;;;;;;-0.48;100.00;102193.53;4999823;28;20053;-78
2023/02/04 06:11:18;;;;;;;3.50;0.73;;;;;;;-0.49;100.00;102200.44;5002943;28;20040;-79
2023/02/04 06:13:43;;;;;;;2.33;0.47;;;;;;;-0.52;100.00;102210.59;5000944;28;20038;-79
2023/02/04 06:16:08;;;;;;;2.87;0.67;;;;;;;-0.49;100.00;102210.81;5004198;28;20033;-79
2023/02/04 06:18:33;;;;;;;3.33;0.43;;;;;;;-0.47;100.00;102218.69;4990528;28;20048;-78
2023/02/04 06:20:59;;;;;;;6.27;1.03;;;;;;;-0.52;100.00;102223.56;5006522;28;20046;-78
2023/02/04 06:23:24;;;;;;;1.83;0.50;;;;;;;-0.53;100.00;102226.06;5003655;28;20034;-79
2023/02/04 06:25:50;;;;;;;2.67;0.77;;;;;;;-0.53;100.00;102226.06;5001700;28;20069;-78
2023/02/04 06:28:15;;;;;;;2.50;0.97;;;;;;;-0.54;100.00;102237.25;5003862;28;20073;-79
2023/02/04 06:30:42;;;;;;;2.07;0.60;;;;;;;-0.60;100.00;102240.34;5000094;28;20061;-78
2023/02/04 06:33:08;;;;;;;2.57;0.70;;;;;;;-0.63;100.00;102245.28;4987405;28;20034;-78
2023/02/04 06:35:33;;;;;;;2.50;0.77;;;;;;;-0.61;100.00;102253.19;4999264;28;20038;-79
2023/02/04 06:37:58;;;;;;;2.53;0.97;;;;;;;-0.62;100.00;102262.66;5006275;28;20096;-78
2023/02/04 06:40:24;;;;;;;4.20;0.60;;;;;;;-0.65;100.00;102267.66;5007019;28;20042;-78
2023/02/04 06:42:49;;;;;;;0.93;0.50;;;;;;;-0.65;100.00;102275.44;5003579;28;20049;-78
2023/02/04 06:45:15;;;;;;;3.27;0.63;;;;;;;-0.65;100.00;102278.03;5006805;28;20026;-79
2023/02/04 06:47:40;;;;;;;1.57;0.67;;;;;;;-0.65;100.00;102288.41;5000766;28;20076;-79
2023/02/04 06:50:05;;;;;;;1.67;0.63;;;;;;;-0.64;100.00;102300.56;5000849;28;20038;-79
2023/02/04 06:52:31;;;;;;;1.43;0.60;;;;;;;-0.64;100.00;102305.75;5000195;28;20048;-78
2023/02/04 06:54:56;;;;;;;3.10;0.60;;;;;;;-0.63;100.00;102310.13;5009464;28;20034;-78
2023/02/04 06:57:21;;;;;;;4.23;0.70;;;;;;;-0.62;100.00;102311.94;5009090;28;20052;-77
2023/02/04 06:59:47;;;;;;;1.43;0.50;;;;;;;-0.61;100.00;102311.13;5012194;28;20042;-78
2023/02/04 07:02:12;;;;;;;2.27;0.40;;;;;;;-0.62;100.00;102314.53;4988914;28;20045;-78
2023/02/04 07:04:38;;;;;;;2.20;1.07;;;;;;;-0.60;100.00;102312.94;4970041;28;20042;-79
2023/02/04 07:07:03;;;;;;;1.33;0.53;;;;;;;-0.58;100.00;102315.63;4999878;28;20026;-79
2023/02/04 07:09:28;;;;;;;3.53;1.20;;;;;;;-0.57;100.00;102313.16;5002219;28;20033;-78
2023/02/04 07:11:54;;;;;;;2.30;0.90;;;;;;;-0.55;100.00;102300.25;5003603;28;20042;-79
2023/02/04 07:14:19;;;;;;;5.07;1.10;;;;;;;-0.53;100.00;102304.75;5001889;28;20069;-79
2023/02/04 07:16:44;;;;;;;2.77;1.00;;;;;;;-0.53;100.00;102299.56;5003331;28;20077;-79
2023/02/04 07:19:10;;;;;;;2.20;0.90;;;;;;;-0.50;100.00;102302.41;5005658;28;20030;-79
2023/02/04 07:21:35;;;;;;;5.43;0.90;;;;;;;-0.49;100.00;102301.59;5003935;28;20038;-79
2023/02/04 07:24:01;;;;;;;2.50;1.17;;;;;;;-0.43;100.00;102305.38;5003917;28;20030;-78
2023/02/04 07:26:26;;;;;;;2.50;0.90;;;;;;;-0.42;100.00;102308.06;5002650;28;20488;-78
2023/02/04 07:28:51;;;;;;;3.37;1.50;;;;;;;-0.38;100.00;102314.38;5008082;28;20128;-79
2023/02/04 07:31:17;;;;;;;3.50;1.17;;;;;;;-0.36;100.00;102316.28;5005305;28;20033;-78
2023/02/04 07:33:42;;;;;;;4.23;1.13;;;;;;;-0.33;100.00;102331.16;5004374;28;20069;-78
2023/02/04 07:36:07;;;;;;;4.67;0.90;;;;;;;-0.31;100.00;102335.66;5002193;28;20089;-78
2023/02/04 07:38:33;;;;;;;4.43;1.37;;;;;;;-0.26;100.00;102338.56;5006060;28;20088;-75
2023/02/04 07:40:58;;;;;;;4.90;1.10;;;;;;;-0.23;100.00;102339.66;5012613;28;20032;-76
2023/02/04 07:43:24;;;;;;;8.50;1.43;;;;;;;-0.20;100.00;102351.94;5012729;28;20499;-76
2023/02/04 07:45:49;;;;;;;4.93;1.10;;;;;;;-0.12;100.00;102355.03;5012232;28;20108;-75
2023/02/04 07:48:14;;;;;;;5.37;1.00;;;;;;;-0.08;100.00;102360.53;5012726;28;20139;-78
2023/02/04 07:50:40;;;;;;;8.07;1.87;;;;;;;-0.03;100.00;102358.22;4985983;28;20044;-78
2023/02/04 07:53:05;;;;;;;2.43;0.70;;;;;;;0.03;100.00;102362.91;5012555;28;20112;-79
2023/02/04 07:55:31;;;;;;;3.63;1.07;;;;;;;0.10;100.00;102357.34;5012290;28;20109;-78
2023/02/04 07:57:56;;;;;;;2.07;0.50;;;;;;;0.18;100.00;102366.53;5012290;28;20419;-78
2023/02/04 08:00:22;;;;;;;4.43;1.20;;;;;;;0.26;100.00;102365.31;5011749;28;20770;-79
2023/02/04 08:02:47;;;;;;;6.37;0.70;;;;;;;0.31;100.00;102366.50;5007085;28;20107;-79
2023/02/04 08:05:13;;;;;;;2.37;0.57;;;;;;;0.37;100.00;102369.53;4993905;28;20485;-78
2023/02/04 08:07:38;;;;;;;4.67;0.93;;;;;;;0.39;100.00;102367.94;5007097;28;20602;-78
2023/02/04 08:10:05;;;;;;;2.67;0.97;;;;;;;0.44;100.00;102366.50;4968681;28;20551;-78
2023/02/04 08:12:31;;;;;;;2.47;0.90;;;;;;;0.50;100.00;102385.88;4994176;28;20033;-78
2023/02/04 08:14:56;;;;;;;2.10;1.00;;;;;;;0.51;100.00;102382.50;5019715;23;20049;-70
2023/02/04 08:17:22;;;;;;;2.53;0.60;;;;;;;0.57;100.00;102382.88;5012688;28;20042;-70
2023/02/04 08:19:47;;;;;;;2.23;1.10;;;;;;;0.61;100.00;102390.09;5008620;28;20048;-70
2023/02/04 08:22:12;;;;;;;3.73;0.80;;;;;;;0.65;100.00;102405.06;5004169;28;20042;-70
2023/02/04 08:24:37;;;;;;;3.97;0.77;;;;;;;0.71;100.00;102404.53;5005222;28;20053;-70
2023/02/04 08:27:03;;;;;;;5.33;0.87;;;;;;;0.69;100.00;102408.78;5008173;28;20408;-70
2023/02/04 08:29:28;;;;;;;2.30;0.40;;;;;;;0.78;100.00;102418.03;5001232;28;20046;-70
2023/02/04 08:31:53;;;;;;;2.83;0.50;;;;;;;0.84;100.00;102420.16;5008578;28;20042;-70
2023/02/04 08:34:19;;;;;;;3.53;0.83;;;;;;;0.86;100.00;102423.72;5001316;28;20057;-70
2023/02/04 08:36:44;;;;;;;2.25;0.63;;;;;;;0.93;100.00;102433.72;5003579;28;20026;-70
2023/02/04 08:39:11;;;;;;;4.32;0.70;;;;;;;1.02;100.00;102444.72;5007510;28;20440;-70
2023/02/04 08:41:36;;;;;;;3.55;0.93;;;;;;;1.04;100.00;102437.88;5006304;28;20044;-70
2023/02/04 08:44:02;;;;;;;3.33;0.82;;;;;;;1.09;100.00;102454.66;5009051;28;20113;-70
2023/02/04 08:46:27;;;;;;;1.88;0.52;;;;;;;1.12;100.00;102448.75;5010635;28;20068;-70
2023/02/04 08:48:52;;;;;;;5.13;0.98;;;;;;;1.12;100.00;102451.38;5011639;28;20089;-70
2023/02/04 08:51:18;;;;;;;1.90;0.73;;;;;;;1.20;100.00;102457.94;5010676;28;20042;-71
2023/02/04 08:53:43;;;;;;;5.00;1.13;;;;;;;1.26;100.00;102462.66;5007706;28;20412;-70
2023/02/04 08:56:09;;;;;;;3.88;0.63;;;;;;;1.31;100.00;102472.53;5002035;28;20125;-70
2023/02/04 08:58:35;;;;;;;1.33;0.50;;;;;;;1.35;100.00;102467.53;5007103;28;20076;-71
2023/02/04 09:01:01;;;;;;;2.65;0.45;;;;;;;1.41;100.00;102474.00;5009176;28;20076;-71
2023/02/04 09:03:26;;;;;;;3.22;0.45;;;;;;;1.53;100.00;102477.38;5004533;28;20448;-71
2023/02/04 09:05:51;;;;;;;3.53;0.60;;;;;;;1.59;100.00;102484.66;5003778;28;20058;-70
2023/02/04 09:08:17;;;;;;;5.97;1.60;;;;;;;1.60;100.00;102483.84;5007366;28;20042;-71
2023/02/04 09:10:42;;;;;;;3.78;0.75;;;;;;;1.69;100.00;102488.72;5004229;28;20038;-71
2023/02/04 09:13:10;;;;;;;3.55;0.80;;;;;;;1.85;100.00;102486.22;5005982;28;20048;-71
2023/02/04 09:15:36;;;;;;;3.75;0.85;;;;;;;1.96;100.00;102486.88;5006528;28;20038;-70
2023/02/04 09:18:10;;;;;;;3.75;1.27;;;;;;;2.10;100.00;102486.00;5009198;28;20044;-71
2023/02/04 09:20:37;;;;;;;2.40;0.77;;;;;;;2.17;100.00;102492.47;5001071;28;20049;-71
2023/02/04 09:23:03;;;;;;;3.00;1.05;;;;;;;2.17;100.00;102495.06;5004365;28;20034;-71
2023/02/04 09:25:28;;;;;;;2.15;0.88;;;;;;;2.17;100.00;102496.00;5003380;28;20053;-71
2023/02/04 09:27:54;;;;;;;3.13;1.02;;;;;;;2.14;100.00;102501.00;5004253;28;20041;-71
2023/02/04 09:30:19;;;;;;;3.45;1.30;;;;;;;2.24;100.00;102512.88;5000247;28;20419;-72
2023/02/04 09:32:44;;;;;;;7.00;1.10;;;;;;;2.32;100.00;102513.34;5005454;28;20504;-71
2023/02/04 09:35:10;;;;;;;2.42;0.50;;;;;;;2.28;100.00;102511.34;5000090;28;20116;-71
2023/02/04 09:37:35;;;;;;;3.80;0.65;;;;;;;2.32;100.00;102518.53;5003640;28;20113;-71
2023/02/04 09:40:00;;;;;;;4.95;1.60;;;;;;;2.52;100.00;102528.44;4998812;28;20026;-71
2023/02/04 09:42:27;;;;;;;2.25;0.80;;;;;;;2.74;100.00;102529.69;5007121;28;20049;-72
2023/02/04 09:44:52;;;;;;;3.00;0.93;;;;;;;2.80;100.00;102532.63;5005706;28;20044;-71
2023/02/04 09:47:22;;;;;;;3.63;0.90;;;;;;;2.84;100.00;102539.84;5011096;28;20488;-71
2023/02/04 09:49:48;;;;;;;4.43;0.60;;;;;;;2.71;100.00;102545.16;5001314;28;20128;-71
2023/02/04 09:52:16;;;;;;;3.17;0.50;;;;;;;2.87;100.00;102546.94;5003155;28;20101;-71
2023/02/04 09:54:42;;;;;;;3.35;0.82;;;;;;;3.00;100.00;102544.22;5000831;28;20045;-70
2023/02/04 09:57:13;;;;;;;2.40;0.47;;;;;;;2.92;100.00;102551.59;5001483;28;20692;-71
2023/02/04 09:59:43;;;;;;;1.85;0.95;;;;;;;2.76;100.00;102554.13;5001920;28;20033;-71
2023/02/04 10:02:25;;;;;;;4.55;1.30;;;;;;;2.61;100.00;102555.03;5000967;28;20034;-71
2023/02/04 10:04:56;;;;;;;2.40;0.90;;;;;;;2.69;100.00;102562.41;5001802;28;20045;-71
2023/02/04 10:07:24;;;;;;;2.38;0.82;;;;;;;2.72;100.00;102558.25;5004864;28;20038;-71
2023/02/04 10:09:50;;;;;;;3.30;0.85;;;;;;;2.84;100.00;102558.97;5003564;28;20132;-71
2023/02/04 10:12:16;;;;;;;4.47;1.33;;;;;;;3.11;100.00;102566.59;5001278;28;20173;-71
2023/02/04 10:14:42;;;;;;;5.68;1.40;;;;;;;3.30;100.00;102565.91;5003013;28;20033;-71
2023/02/04 10:17:10;;;;;;;2.42;0.65;;;;;;;3.39;98.94;102570.75;5006006;28;20116;-71
2023/02/04 10:19:35;;;;;;;3.33;0.85;;;;;;;3.27;98.48;102570.94;4999686;28;20038;-71
2023/02/04 10:22:02;;;;;;;2.20;0.70;;;;;;;3.22;97.51;102567.19;5005252;28;20149;-73
2023/02/04 10:24:29;;;;;;;3.05;0.95;;;;;;;3.28;97.48;102563.22;5000029;28;20129;-73
2023/02/04 10:27:06;;;;;;;2.58;0.88;;;;;;;3.48;98.20;102568.63;5002821;28;20022;-71
2023/02/04 10:29:31;;;;;;;3.78;0.85;;;;;;;3.39;96.20;102569.03;5004184;28;20034;-71
2023/02/04 10:31:57;;;;;;;2.08;0.73;;;;;;;3.21;95.70;102568.00;5006561;28;20480;-71
2023/02/04 10:34:32;;;;;;;1.67;0.47;;;;;;;3.18;97.01;102567.84;5007155;28;20506;-71
2023/02/04 10:36:57;;;;;;;1.98;0.70;;;;;;;3.16;97.75;102572.06;5006773;28;20381;-72
2023/02/04 10:39:25;;;;;;;2.58;0.70;;;;;;;3.06;96.39;102574.13;5002905;28;20069;-72
2023/02/04 10:41:52;;;;;;;5.25;0.93;;;;;;;3.01;97.39;102575.63;5003894;28;20407;-71
2023/02/04 10:44:34;;;;;;;1.95;0.50;;;;;;;2.97;98.08;102576.25;5004324;28;20038;-71
2023/02/04 10:47:21;;;;;;;2.70;0.60;;;;;;;2.85;98.14;102580.72;5004637;28;20096;-72
2023/02/04 10:49:56;;;;;;;3.75;0.75;;;;;;;2.83;99.36;102570.22;5001416;28;20042;-72
2023/02/04 10:52:25;;;;;;;2.90;0.80;;;;;;;2.96;100.00;102571.84;5004136;28;20034;-72
2023/02/04 10:54:50;;;;;;;4.22;0.90;;;;;;;3.10;100.00;102574.34;5002232;28;20470;-72
2023/02/04 10:57:20;;;;;;;4.53;0.77;;;;;;;3.21;99.23;102578.44;5007109;28;20076;-72
2023/02/04 10:59:48;;;;;;;2.42;0.90;;;;;;;3.28;97.98;102578.00;5000014;28;20042;-72
2023/02/04 11:02:31;;;;;;;1.52;0.60;;;;;;;3.26;95.00;102574.38;5008489;28;20033;-72
2023/02/04 11:04:56;;;;;;;3.42;0.75;;;;;;;3.30;97.20;102573.72;5006805;28;20557;-72
2023/02/04 11:07:22;;;;;;;4.43;0.77;;;;;;;3.27;96.34;102581.38;5006273;28;20101;-72
2023/02/04 11:09:48;;;;;;;2.50;0.55;;;;;;;3.30;97.61;102576.34;5003055;28;20121;-72
2023/02/04 11:12:21;;;;;;;4.75;0.80;;;;;;;3.36;96.01;102574.09;5009810;28;20117;-72
2023/02/04 11:14:56;;;;;;;4.13;0.80;;;;;;;3.51;93.92;102576.63;5003841;28;20038;-72
2023/02/04 11:17:31;;;;;;;2.45;0.40;;;;;;;3.60;92.05;102574.53;5008907;28;20033;-72
2023/02/04 11:19:58;;;;;;;3.53;1.10;;;;;;;3.73;90.59;102578.72;5005546;28;20069;-72